Select Airport:
Chesapeake Regional Airport
Last updated: 14 minutes ago
Flight conditions: VFR
Visibility: 10.0 statute miles
Sky Conditions:
   Overcast at 9000 feet
Wind From:
Wind speed: 0 knots (0 mph)
Temperature: 8.3°C (46.94°F)
Dew Point: 7.5°C (45.5°F)
Altimiter setting: 30.21 in-hg
WX phone: 1-757-204-4290
WX freq: 123.675 MHz
No wind, all runways available.
If at an uncontrolled airport, be sure to listen carefully to the CTAF for the runway(s) in use.
KCPK 220735Z AUTO 00000KT 10SM OVC090 08/08 A3021 RMK AO2 T00830075
FOR REFERENCE USE ONLY, DATA MAY NOT BE CURRENT.
ALWAYS CHECK FOR UP TO DATE INFORMATION.